Time;durP1;ratioP1;P1;durP2;ratioP2;P2;SDS_P1;SDS_P2;PMS_P1;PMS_P2;Temp;Humidity;BMP_temperature;BMP_pressure;BME280_temperature;BME280_humidity;BME280_pressure;Samples;Min_cycle;Max_cycle;Signal;HPM_P1;HPM_P2
2023/09/22 00:00:15;;;;;;;;;;;;;;;21.94;100.00;96598.91;5120745;28;19924;-78
2023/09/22 00:02:42;;;;;;;;;;;;;;;21.93;100.00;96619.13;5103547;28;19953;-78
2023/09/22 00:05:12;;;;;;;;;;;;;;;21.93;100.00;96623.78;5119471;28;19993;-78
2023/09/22 00:07:38;;;;;;;;;;;;;;;21.92;100.00;96633.84;5116247;28;19982;-78
2023/09/22 00:10:06;;;;;;;;;;;;;;;21.91;100.00;96645.09;5102769;28;19924;-78
2023/09/22 00:12:32;;;;;;;;;;;;;;;21.78;100.00;96654.59;5121969;28;20459;-79
2023/09/22 00:14:59;;;;;;;;;;;;;;;21.81;100.00;96664.72;5104173;28;19924;-79
2023/09/22 00:17:26;;;;;;;;;;;;;;;21.78;100.00;96660.00;5121664;28;19930;-80
2023/09/22 00:19:53;;;;;;;;;;;;;;;21.80;100.00;96657.72;5116471;28;19935;-79
2023/09/22 00:22:19;;;;;;;;;;;;;;;21.62;100.00;96654.72;5117225;28;19955;-79
2023/09/22 00:24:45;;;;;;;;;;;;;;;21.55;100.00;96657.31;5122848;28;19923;-78
2023/09/22 00:27:15;;;;;;;;;;;;;;;21.57;100.00;96673.28;5125326;28;19975;-78
2023/09/22 00:29:42;;;;;;;;;;;;;;;21.51;100.00;96657.25;5125583;28;19923;-78
2023/09/22 00:32:08;;;;;;;;;;;;;;;21.48;100.00;96657.19;5120267;28;19920;-78
2023/09/22 00:34:36;;;;;;;;;;;;;;;21.54;100.00;96656.53;5115107;28;20018;-78
2023/09/22 00:37:02;;;;;;;;;;;;;;;21.58;100.00;96648.44;5118887;28;19924;-78
2023/09/22 00:39:29;;;;;;;;;;;;;;;21.63;100.00;96648.16;5120282;28;19938;-78
2023/09/22 00:41:55;;;;;;;;;;;;;;;21.70;100.00;96650.16;5116134;28;19955;-78
2023/09/22 00:44:22;;;;;;;;;;;;;;;21.70;100.00;96655.59;5115787;28;19927;-79
2023/09/22 00:46:48;;;;;;;;;;;;;;;21.63;100.00;96658.22;5111253;28;20003;-78
2023/09/22 00:49:15;;;;;;;;;;;;;;;21.69;100.00;96651.34;5102508;28;19952;-78
2023/09/22 00:51:42;;;;;;;;;;;;;;;21.56;100.00;96664.34;5102630;28;19969;-78
2023/09/22 00:54:09;;;;;;;;;;;;;;;21.62;100.00;96662.88;5096964;28;19996;-78
2023/09/22 00:56:36;;;;;;;;;;;;;;;21.67;100.00;96656.34;5112342;28;19921;-78
2023/09/22 00:59:02;;;;;;;;;;;;;;;21.69;100.00;96656.78;5118128;28;19920;-78
2023/09/22 01:01:29;;;;;;;;;;;;;;;21.72;100.00;96669.63;5119712;28;19995;-78
2023/09/22 01:03:55;;;;;;;;;;;;;;;21.64;100.00;96668.72;5120666;28;19932;-79
2023/09/22 01:06:22;;;;;;;;;;;;;;;21.69;100.00;96673.06;5119117;28;19963;-79
2023/09/22 01:08:49;;;;;;;;;;;;;;;21.46;100.00;96649.44;5114270;28;19920;-79
2023/09/22 01:11:16;;;;;;;;;;;;;;;21.06;100.00;96629.31;5098464;28;20014;-79
2023/09/22 01:13:42;;;;;;;;;;;;;;;20.79;100.00;96647.44;5119209;28;19959;-78
2023/09/22 01:16:09;;;;;;;;;;;;;;;20.96;100.00;96646.97;5121625;28;19923;-79
2023/09/22 01:18:35;;;;;;;;;;;;;;;20.91;100.00;96650.78;5119711;28;19923;-79
2023/09/22 01:21:03;;;;;;;;;;;;;;;21.08;100.00;96635.94;5115453;28;19934;-79
2023/09/22 01:23:31;;;;;;;;;;;;;;;21.23;100.00;96650.59;5113812;28;19924;-79
2023/09/22 01:25:57;;;;;;;;;;;;;;;21.40;100.00;96659.03;5118596;28;19931;-79
2023/09/22 01:28:24;;;;;;;;;;;;;;;21.54;100.00;96658.47;5119745;28;19924;-79
2023/09/22 01:30:50;;;;;;;;;;;;;;;21.61;100.00;96666.72;5114275;28;19924;-79
2023/09/22 01:33:17;;;;;;;;;;;;;;;21.66;100.00;96662.94;5115551;28;19987;-79
2023/09/22 01:35:43;;;;;;;;;;;;;;;21.64;100.00;96665.22;5118879;28;19960;-79
2023/09/22 01:38:11;;;;;;;;;;;;;;;21.67;100.00;96669.91;5118783;28;19946;-79
2023/09/22 01:40:39;;;;;;;;;;;;;;;21.71;100.00;96666.13;5120138;28;19963;-79
2023/09/22 01:43:05;;;;;;;;;;;;;;;21.67;100.00;96662.56;5115833;28;19934;-78
2023/09/22 01:45:32;;;;;;;;;;;;;;;21.62;100.00;96667.53;5108843;28;19928;-78
2023/09/22 01:47:58;;;;;;;;;;;;;;;21.46;100.00;96667.66;5113207;28;19981;-78
2023/09/22 01:50:25;;;;;;;;;;;;;;;21.34;100.00;96662.41;5118633;28;19988;-79
2023/09/22 01:52:52;;;;;;;;;;;;;;;21.37;100.00;96665.19;5120361;28;19932;-78
2023/09/22 01:55:18;;;;;;;;;;;;;;;21.36;100.00;96660.91;5117229;28;19924;-78
2023/09/22 01:57:48;;;;;;;;;;;;;;;21.27;100.00;96665.00;5095499;28;19959;-78
2023/09/22 02:00:16;;;;;;;;;;;;;;;21.00;100.00;96664.91;5115614;28;19950;-79
2023/09/22 02:02:43;;;;;;;;;;;;;;;20.85;100.00;96649.50;5118414;28;19947;-79
2023/09/22 02:05:11;;;;;;;;;;;;;;;20.63;100.00;96644.81;5119826;28;19941;-79
2023/09/22 02:07:37;;;;;;;;;;;;;;;20.41;100.00;96640.91;5119064;28;19991;-78
2023/09/22 02:10:04;;;;;;;;;;;;;;;20.28;100.00;96627.81;5114622;28;19946;-78
2023/09/22 02:12:31;;;;;;;;;;;;;;;20.11;100.00;96618.16;5113483;28;19928;-78
2023/09/22 02:15:00;;;;;;;;;;;;;;;20.43;100.00;96616.13;5117242;28;19924;-78
2023/09/22 02:17:27;;;;;;;;;;;;;;;20.66;100.00;96622.41;5114779;28;19924;-78
2023/09/22 02:19:53;;;;;;;;;;;;;;;20.87;100.00;96625.50;5114548;28;20010;-78
2023/09/22 02:22:19;;;;;;;;;;;;;;;21.02;100.00;96632.75;5120720;28;19928;-78
2023/09/22 02:24:46;;;;;;;;;;;;;;;21.20;100.00;96651.31;5125629;28;19908;-78
2023/09/22 02:27:12;;;;;;;;;;;;;;;21.34;100.00;96657.75;5124678;28;20228;-78
2023/09/22 02:29:38;;;;;;;;;;;;;;;21.38;100.00;96660.53;5123175;28;20025;-78
2023/09/22 02:32:06;;;;;;;;;;;;;;;21.42;100.00;96670.31;5115344;28;19958;-78
2023/09/22 02:34:33;;;;;;;;;;;;;;;21.48;100.00;96668.84;5113125;28;20079;-78
2023/09/22 02:36:59;;;;;;;;;;;;;;;21.32;100.00;96673.63;5099202;28;19931;-79
2023/09/22 02:39:25;;;;;;;;;;;;;;;21.32;100.00;96670.91;5117993;28;19935;-78
2023/09/22 02:41:52;;;;;;;;;;;;;;;21.39;100.00;96668.31;5119294;28;19956;-78
2023/09/22 02:44:18;;;;;;;;;;;;;;;21.44;100.00;96675.38;5116594;28;19923;-78
2023/09/22 02:46:45;;;;;;;;;;;;;;;21.47;100.00;96671.94;5112842;28;19987;-78
2023/09/22 02:49:13;;;;;;;;;;;;;;;21.45;100.00;96672.28;5098233;28;19932;-78
2023/09/22 02:51:39;;;;;;;;;;;;;;;21.45;100.00;96675.00;5119220;28;19925;-78
2023/09/22 02:54:05;;;;;;;;;;;;;;;21.47;100.00;96680.88;5101563;28;19987;-78
2023/09/22 02:56:32;;;;;;;;;;;;;;;21.48;100.00;96687.88;5117911;28;19951;-78
2023/09/22 02:58:58;;;;;;;;;;;;;;;21.49;100.00;96700.31;5095731;28;19931;-78
2023/09/22 03:01:25;;;;;;;;;;;;;;;21.49;100.00;96711.19;5113827;28;19924;-78
2023/09/22 03:03:51;;;;;;;;;;;;;;;21.48;100.00;96712.31;5117802;28;19963;-78
2023/09/22 03:06:19;;;;;;;;;;;;;;;21.52;100.00;96715.09;5119341;28;19963;-78
2023/09/22 03:08:45;;;;;;;;;;;;;;;21.50;100.00;96715.47;5111733;28;19923;-79
2023/09/22 03:11:12;;;;;;;;;;;;;;;21.49;100.00;96718.53;5114805;28;19924;-78
2023/09/22 03:13:38;;;;;;;;;;;;;;;21.49;100.00;96713.88;5117771;28;19931;-77
2023/09/22 03:16:04;;;;;;;;;;;;;;;21.51;100.00;96703.44;5109088;28;19935;-78
2023/09/22 03:18:31;;;;;;;;;;;;;;;21.51;100.00;96711.59;5119078;28;19935;-78
2023/09/22 03:20:57;;;;;;;;;;;;;;;21.39;100.00;96709.06;5113796;28;19926;-78
2023/09/22 03:23:25;;;;;;;;;;;;;;;21.37;100.00;96713.28;5113710;28;19994;-78
2023/09/22 03:25:52;;;;;;;;;;;;;;;21.18;100.00;96700.53;5118936;28;19923;-78
2023/09/22 03:28:19;;;;;;;;;;;;;;;21.23;100.00;96699.47;5124054;28;19924;-78
2023/09/22 03:30:45;;;;;;;;;;;;;;;21.28;100.00;96701.88;5125614;28;19924;-78
2023/09/22 03:33:12;;;;;;;;;;;;;;;21.23;100.00;96705.66;5120424;28;19977;-78
2023/09/22 03:35:38;;;;;;;;;;;;;;;21.21;100.00;96712.59;5098276;28;19931;-78
2023/09/22 03:38:09;;;;;;;;;;;;;;;21.24;100.00;96709.94;5119730;28;19924;-78
2023/09/22 03:40:41;;;;;;;;;;;;;;;21.27;100.00;96706.50;5121081;28;19993;-78
2023/09/22 03:43:07;;;;;;;;;;;;;;;21.17;100.00;96693.53;5103713;28;19977;-78
2023/09/22 03:45:34;;;;;;;;;;;;;;;20.99;100.00;96692.38;5095403;28;19988;-79
2023/09/22 03:48:00;;;;;;;;;;;;;;;20.93;100.00;96689.19;5116887;28;19923;-78
2023/09/22 03:50:26;;;;;;;;;;;;;;;21.05;100.00;96699.09;5116081;28;20496;-78
2023/09/22 03:52:53;;;;;;;;;;;;;;;21.13;100.00;96703.56;5120733;28;19985;-78
2023/09/22 03:55:21;;;;;;;;;;;;;;;21.22;100.00;96692.47;5122127;28;19963;-78
2023/09/22 03:57:49;;;;;;;;;;;;;;;21.19;100.00;96680.41;5116476;28;19924;-78
2023/09/22 04:00:23;;;;;;;;;;;;;;;21.07;100.00;96701.47;5116971;28;19932;-78
2023/09/22 04:02:49;;;;;;;;;;;;;;;20.87;100.00;96725.09;5120477;28;19954;-78
2023/09/22 04:05:16;;;;;;;;;;;;;;;20.98;100.00;96702.44;5121082;28;19920;-78
2023/09/22 04:07:42;;;;;;;;;;;;;;;20.91;100.00;96694.19;5123794;28;19923;-78
2023/09/22 04:10:10;;;;;;;;;;;;;;;20.93;100.00;96700.03;5118760;28;19924;-78
2023/09/22 04:12:37;;;;;;;;;;;;;;;20.86;100.00;96702.59;5117745;28;19912;-78
2023/09/22 04:15:06;;;;;;;;;;;;;;;20.89;100.00;96707.31;5122552;28;19924;-78
2023/09/22 04:17:32;;;;;;;;;;;;;;;20.77;100.00;96701.25;5123718;28;19988;-78
2023/09/22 04:19:59;;;;;;;;;;;;;;;20.74;100.00;96705.47;5123499;28;19938;-78
2023/09/22 04:22:28;;;;;;;;;;;;;;;20.82;100.00;96714.56;5122740;28;19924;-78
2023/09/22 04:25:00;;;;;;;;;;;;;;;20.96;100.00;96728.38;5112523;28;19935;-78
2023/09/22 04:27:32;;;;;;;;;;;;;;;20.94;100.00;96736.91;5116027;28;19974;-78
2023/09/22 04:29:59;;;;;;;;;;;;;;;20.99;100.00;96747.47;5108942;28;19919;-78
2023/09/22 04:32:27;;;;;;;;;;;;;;;21.05;100.00;96749.88;5120558;28;19924;-78
2023/09/22 04:34:53;;;;;;;;;;;;;;;21.10;100.00;96749.63;5122214;28;19934;-78
2023/09/22 04:37:23;;;;;;;;;;;;;;;21.13;100.00;96746.19;5118580;28;19927;-78
2023/09/22 04:39:50;;;;;;;;;;;;;;;21.12;100.00;96739.19;5115392;28;19927;-78
2023/09/22 04:42:16;;;;;;;;;;;;;;;20.94;100.00;96736.13;5117160;28;19924;-79
2023/09/22 04:44:42;;;;;;;;;;;;;;;20.93;100.00;96734.53;5126834;28;19928;-78
2023/09/22 04:47:09;;;;;;;;;;;;;;;20.95;100.00;96740.41;5096029;28;19923;-78
2023/09/22 04:49:36;;;;;;;;;;;;;;;20.99;100.00;96743.97;5114035;28;19967;-78
2023/09/22 04:52:03;;;;;;;;;;;;;;;21.01;100.00;96763.41;5120094;28;19942;-78
2023/09/22 04:54:30;;;;;;;;;;;;;;;21.07;100.00;96772.81;5127894;28;19918;-78
2023/09/22 04:56:56;;;;;;;;;;;;;;;21.08;100.00;96771.66;5126851;28;19967;-77
2023/09/22 04:59:23;;;;;;;;;;;;;;;21.10;100.00;96784.91;5126259;28;19930;-78
2023/09/22 05:01:50;;;;;;;;;;;;;;;21.10;100.00;96796.56;5122072;28;19919;-77
2023/09/22 05:04:16;;;;;;;;;;;;;;;21.08;100.00;96792.59;5118176;28;19924;-76
2023/09/22 05:06:44;;;;;;;;;;;;;;;21.11;100.00;96794.63;5119914;28;19991;-76
2023/09/22 05:09:10;;;;;;;;;;;;;;;21.10;100.00;96796.56;5119308;28;19935;-76
2023/09/22 05:11:37;;;;;;;;;;;;;;;21.10;100.00;96791.16;5121784;28;19931;-76
2023/09/22 05:14:03;;;;;;;;;;;;;;;21.01;100.00;96795.97;5117308;28;19924;-76
2023/09/22 05:16:30;;;;;;;;;;;;;;;20.88;100.00;96794.53;5114130;28;19931;-76
2023/09/22 05:18:56;;;;;;;;;;;;;;;20.93;100.00;96805.88;5118978;28;19947;-77
2023/09/22 05:21:23;;;;;;;;;;;;;;;21.00;100.00;96807.97;5119020;28;19946;-78
2023/09/22 05:23:52;;;;;;;;;;;;;;;21.06;100.00;96809.25;5120332;28;19924;-77
2023/09/22 05:26:18;;;;;;;;;;;;;;;21.05;100.00;96825.88;5117847;28;19963;-77
2023/09/22 05:28:45;;;;;;;;;;;;;;;21.07;100.00;96823.63;5114131;28;19924;-77
2023/09/22 05:31:12;;;;;;;;;;;;;;;21.10;100.00;96826.44;5116491;28;19982;-77
2023/09/22 05:33:38;;;;;;;;;;;;;;;21.10;100.00;96831.88;5100699;28;20523;-77
2023/09/22 05:36:05;;;;;;;;;;;;;;;21.11;100.00;96830.69;5120228;28;19983;-77
2023/09/22 05:38:31;;;;;;;;;;;;;;;21.07;100.00;96837.97;5118669;28;19927;-78
2023/09/22 05:40:59;;;;;;;;;;;;;;;21.08;100.00;96830.59;5110469;28;19954;-77
2023/09/22 05:43:26;;;;;;;;;;;;;;;21.07;100.00;96827.13;5100483;28;19935;-77
2023/09/22 05:45:56;;;;;;;;;;;;;;;21.10;100.00;96829.16;5109909;28;19932;-78
2023/09/22 05:48:23;;;;;;;;;;;;;;;21.08;100.00;96823.25;5119350;28;19924;-77
2023/09/22 05:50:56;;;;;;;;;;;;;;;20.97;100.00;96833.91;5113050;28;19955;-77
2023/09/22 05:53:24;;;;;;;;;;;;;;;20.92;100.00;96828.72;5115052;28;19963;-77
2023/09/22 05:55:51;;;;;;;;;;;;;;;20.96;100.00;96824.16;5118376;28;19924;-77
2023/09/22 05:58:19;;;;;;;;;;;;;;;20.97;100.00;96833.09;5118085;28;19930;-77
2023/09/22 06:00:45;;;;;;;;;;;;;;;20.93;100.00;96826.81;5119895;28;19988;-77
2023/09/22 06:03:12;;;;;;;;;;;;;;;20.99;100.00;96834.31;5116649;28;20536;-77
2023/09/22 06:05:39;;;;;;;;;;;;;;;20.89;100.00;96840.28;5113559;28;19924;-77
2023/09/22 06:08:06;;;;;;;;;;;;;;;20.87;100.00;96830.94;5116639;28;19924;-77
2023/09/22 06:10:33;;;;;;;;;;;;;;;20.89;100.00;96843.00;5100167;28;19938;-77
2023/09/22 06:13:00;;;;;;;;;;;;;;;20.82;100.00;96842.09;5119823;28;19928;-77
2023/09/22 06:15:28;;;;;;;;;;;;;;;20.79;100.00;96848.22;5113957;28;19924;-78
2023/09/22 06:17:54;;;;;;;;;;;;;;;20.73;100.00;96857.78;5118734;28;19923;-77
2023/09/22 06:20:20;;;;;;;;;;;;;;;20.69;100.00;96871.25;5115552;28;19924;-77
2023/09/22 06:22:49;;;;;;;;;;;;;;;20.76;100.00;96876.84;5120183;28;19928;-78
2023/09/22 06:25:18;;;;;;;;;;;;;;;20.78;100.00;96873.78;5127179;28;19920;-78
2023/09/22 06:27:45;;;;;;;;;;;;;;;20.82;100.00;96882.78;5109008;28;19930;-78
2023/09/22 06:30:12;;;;;;;;;;;;;;;20.67;100.00;96886.31;5108741;28;19927;-77
2023/09/22 06:32:41;;;;;;;;;;;;;;;20.57;100.00;96895.00;5120630;28;19924;-78
2023/09/22 06:35:10;;;;;;;;;;;;;;;20.66;100.00;96903.72;5119909;28;19924;-77
2023/09/22 06:37:37;;;;;;;;;;;;;;;20.56;100.00;96901.53;5119172;28;20546;-77
2023/09/22 06:40:06;;;;;;;;;;;;;;;20.64;100.00;96897.88;5115439;28;19924;-77
2023/09/22 06:42:32;;;;;;;;;;;;;;;20.62;100.00;96900.13;5095488;28;19928;-77
2023/09/22 06:44:59;;;;;;;;;;;;;;;20.65;100.00;96885.88;5099396;28;19924;-77
2023/09/22 06:47:25;;;;;;;;;;;;;;;20.64;100.00;96892.44;5108149;28;19960;-78
2023/09/22 06:49:53;;;;;;;;;;;;;;;20.56;100.00;96905.06;5118584;28;19932;-77
2023/09/22 06:52:19;;;;;;;;;;;;;;;20.61;100.00;96890.44;5099568;28;19927;-78
2023/09/22 06:54:46;;;;;;;;;;;;;;;20.64;100.00;96889.75;5112967;28;19924;-78
2023/09/22 06:57:12;;;;;;;;;;;;;;;20.50;100.00;96898.31;5115560;28;19928;-78
2023/09/22 06:59:38;;;;;;;;;;;;;;;20.54;100.00;96901.13;5118059;28;19991;-78
2023/09/22 07:02:05;;;;;;;;;;;;;;;20.63;100.00;96888.94;5122965;28;19970;-77
2023/09/22 07:04:33;;;;;;;;;;;;;;;20.68;100.00;96887.88;5122449;28;19924;-77
2023/09/22 07:07:01;;;;;;;;;;;;;;;20.63;100.00;96893.59;5117546;28;19924;-77
2023/09/22 07:09:27;;;;;;;;;;;;;;;20.64;100.00;96889.75;5117234;28;19924;-77
2023/09/22 07:11:54;;;;;;;;;;;;;;;20.66;100.00;96895.59;5121713;28;20465;-77
2023/09/22 07:14:20;;;;;;;;;;;;;;;20.64;100.00;96903.31;5122658;28;19946;-77
2023/09/22 07:16:49;;;;;;;;;;;;;;;20.63;100.00;96899.81;5122343;28;19971;-77
2023/09/22 07:19:16;;;;;;;;;;;;;;;20.65;100.00;96907.56;5113217;28;19931;-77
2023/09/22 07:21:42;;;;;;;;;;;;;;;20.59;100.00;96898.13;5103067;28;19924;-77
2023/09/22 07:24:10;;;;;;;;;;;;;;;20.57;100.00;96897.72;5122263;28;19924;-78
2023/09/22 07:26:37;;;;;;;;;;;;;;;20.57;100.00;96900.41;5122521;28;19934;-77
2023/09/22 07:29:04;;;;;;;;;;;;;;;20.61;100.00;96893.16;5119090;28;19935;-77
2023/09/22 07:31:31;;;;;;;;;;;;;;;20.67;100.00;96906.09;5116668;28;19932;-77
2023/09/22 07:33:58;;;;;;;;;;;;;;;20.56;100.00;96902.34;5122343;28;19920;-77
2023/09/22 07:36:26;;;;;;;;;;;;;;;20.67;100.00;96905.31;5105369;28;19942;-78
2023/09/22 07:38:53;;;;;;;;;;;;;;;20.70;100.00;96907.31;5123901;28;19934;-77
2023/09/22 07:41:20;;;;;;;;;;;;;;;20.68;100.00;96917.72;5121885;28;19945;-77
2023/09/22 07:43:47;;;;;;;;;;;;;;;20.58;100.00;96919.03;5117445;28;20407;-77
2023/09/22 07:46:13;;;;;;;;;;;;;;;20.61;100.00;96923.75;5121359;28;19957;-78
2023/09/22 07:48:40;;;;;;;;;;;;;;;20.61;100.00;96923.75;5124045;28;19931;-78
2023/09/22 07:51:08;;;;;;;;;;;;;;;20.55;100.00;96936.00;5111271;28;19927;-78
2023/09/22 07:53:35;;;;;;;;;;;;;;;20.57;100.00;96941.09;5129759;28;19912;-78
2023/09/22 07:56:01;;;;;;;;;;;;;;;20.60;100.00;96943.91;5102327;28;19928;-77
2023/09/22 07:58:30;;;;;;;;;;;;;;;20.58;100.00;96943.44;5125150;28;19919;-78
2023/09/22 08:00:58;;;;;;;;;;;;;;;20.51;100.00;96946.00;5111118;28;19988;-77
2023/09/22 08:03:25;;;;;;;;;;;;;;;20.48;100.00;96945.91;5127233;28;19928;-77
2023/09/22 08:05:52;;;;;;;;;;;;;;;20.32;100.00;96954.03;5121864;28;19981;-78
2023/09/22 08:08:18;;;;;;;;;;;;;;;20.32;100.00;96952.13;5114594;28;19932;-77
2023/09/22 08:10:45;;;;;;;;;;;;;;;20.34;100.00;96943.63;5116484;28;19950;-78
2023/09/22 08:13:11;;;;;;;;;;;;;;;20.54;100.00;96955.38;5120659;28;19924;-78
2023/09/22 08:15:39;;;;;;;;;;;;;;;20.43;100.00;96952.38;5118145;28;19936;-78
2023/09/22 08:18:06;;;;;;;;;;;;;;;20.39;100.00;96956.94;5118165;28;19930;-77
2023/09/22 08:20:33;;;;;;;;;;;;;;;20.25;100.00;96970.09;5097296;28;19963;-77
2023/09/22 08:23:00;;;;;;;;;;;;;;;20.43;100.00;96969.44;5119710;28;19965;-77
2023/09/22 08:25:27;;;;;;;;;;;;;;;20.33;100.00;96972.66;5120473;28;19924;-77
2023/09/22 08:27:54;;;;;;;;;;;;;;;20.31;100.00;96982.28;5120820;28;19932;-78
2023/09/22 08:30:21;;;;;;;;;;;;;;;20.26;100.00;96977.91;5119726;28;19923;-77
2023/09/22 08:32:49;;;;;;;;;;;;;;;20.29;100.00;96987.28;5115245;28;19924;-77
2023/09/22 08:35:15;;;;;;;;;;;;;;;20.39;100.00;96984.81;5117253;28;19946;-77
2023/09/22 08:37:42;;;;;;;;;;;;;;;20.51;100.00;96986.69;5120090;28;19924;-77
2023/09/22 08:40:10;;;;;;;;;;;;;;;20.32;100.00;97009.06;5121061;28;19946;-78
2023/09/22 08:42:38;;;;;;;;;;;;;;;20.30;100.00;97000.47;5102426;28;19924;-78
2023/09/22 08:45:06;;;;;;;;;;;;;;;20.30;100.00;96999.72;5114821;28;19930;-76
2023/09/22 08:47:33;;;;;;;;;;;;;;;20.31;100.00;97001.25;5117945;28;19924;-77
2023/09/22 08:50:01;;;;;;;;;;;;;;;20.26;100.00;96999.63;5119055;28;19931;-77
2023/09/22 08:52:28;;;;;;;;;;;;;;;20.15;100.00;96995.00;5120071;28;19963;-77
2023/09/22 08:54:54;;;;;;;;;;;;;;;20.30;100.00;96997.75;5115968;28;20713;-76
2023/09/22 08:57:23;;;;;;;;;;;;;;;20.41;100.00;96996.13;5116268;28;19959;-77
2023/09/22 08:59:53;;;;;;;;;;;;;;;20.45;100.00;97007.06;5101326;28;19924;-77
2023/09/22 09:02:19;;;;;;;;;;;;;;;20.36;100.00;97003.75;5119623;28;19935;-76
2023/09/22 09:04:45;;;;;;;;;;;;;;;20.37;100.00;97000.66;5119607;28;19976;-77
2023/09/22 09:07:16;;;;;;;;;;;;;;;20.47;100.00;96999.38;5096859;28;19935;-77
2023/09/22 09:09:44;;;;;;;;;;;;;;;20.33;100.00;96999.78;5114309;28;19932;-77
2023/09/22 09:12:11;;;;;;;;;;;;;;;20.41;100.00;97003.47;5116829;28;19934;-77
2023/09/22 09:14:38;;;;;;;;;;;;;;;20.30;100.00;97007.84;5119388;28;19942;-77
2023/09/22 09:17:17;;;;;;;;;;;;;;;20.33;100.00;97005.19;5119373;28;19948;-77
2023/09/22 09:19:43;;;;;;;;;;;;;;;20.44;100.00;96995.44;5120298;28;19924;-77
2023/09/22 09:22:10;;;;;;;;;;;;;;;20.37;100.00;96994.44;5116651;28;20380;-77
2023/09/22 09:24:38;;;;;;;;;;;;;;;20.31;100.00;96991.22;5114009;28;19950;-77
2023/09/22 09:27:14;;;;;;;;;;;;;;;20.30;100.00;96997.00;5117473;28;19934;-77
2023/09/22 09:29:41;;;;;;;;;;;;;;;20.29;100.00;97004.34;5118925;28;19935;-77
2023/09/22 09:32:08;;;;;;;;;;;;;;;20.21;100.00;97010.66;5102845;28;19955;-78
2023/09/22 09:34:39;;;;;;;;;;;;;;;20.21;100.00;97013.38;5120082;28;19924;-77
2023/09/22 09:37:10;;;;;;;;;;;;;;;20.22;100.00;97011.44;5116533;28;19930;-76
2023/09/22 09:39:45;;;;;;;;;;;;;;;20.30;100.00;97005.91;5095490;28;19996;-78
2023/09/22 09:42:13;;;;;;;;;;;;;;;20.19;100.00;97009.44;5119193;28;19924;-77
2023/09/22 09:44:43;;;;;;;;;;;;;;;20.27;100.00;97005.81;5120111;28;19908;-76
2023/09/22 09:47:10;;;;;;;;;;;;;;;20.25;100.00;97008.84;5120820;28;19931;-77
2023/09/22 09:49:39;;;;;;;;;;;;;;;20.32;100.00;97011.78;5113798;28;19912;-76
2023/09/22 09:52:09;;;;;;;;;;;;;;;20.22;100.00;97006.03;5117926;28;19920;-78
2023/09/22 09:54:41;;;;;;;;;;;;;;;20.28;100.00;97005.47;5118619;28;20569;-78
2023/09/22 09:57:09;;;;;;;;;;;;;;;20.26;100.00;96998.81;5119441;28;19927;-78
2023/09/22 09:59:38;;;;;;;;;;;;;;;20.28;100.00;97019.03;5120421;28;19969;-77
2023/09/22 10:02:05;;;;;;;;;;;;;;;20.42;100.00;97022.09;5115529;28;19923;-77
2023/09/22 10:04:33;;;;;;;;;;;;;;;20.25;100.00;97018.88;5114124;28;19924;-78
2023/09/22 10:07:00;;;;;;;;;;;;;;;20.27;100.00;97017.44;5117754;28;19979;-78
2023/09/22 10:09:27;;;;;;;;;;;;;;;20.13;100.00;97017.03;5118347;28;19946;-78
2023/09/22 10:11:54;;;;;;;;;;;;;;;20.32;100.00;97017.19;5119864;28;19981;-78
2023/09/22 10:14:41;;;;;;;;;;;;;;;20.35;100.00;97019.22;5117155;28;19951;-78
2023/09/22 10:17:18;;;;;;;;;;;;;;;20.25;100.00;97014.25;5111285;28;19923;-78
2023/09/22 10:19:46;;;;;;;;;;;;;;;20.37;100.00;97013.44;5113716;28;19927;-78
2023/09/22 10:22:12;;;;;;;;;;;;;;;20.39;100.00;97006.53;5116009;28;19925;-78
2023/09/22 10:24:39;;;;;;;;;;;;;;;20.28;100.00;97004.66;5118586;28;19963;-77
2023/09/22 10:27:08;;;;;;;;;;;;;;;20.27;100.00;97009.31;5120145;28;19928;-78
2023/09/22 10:29:52;;;;;;;;;;;;;;;20.24;100.00;97011.91;5110792;28;19928;-77
2023/09/22 10:32:23;;;;;;;;;;;;;;;20.26;100.00;97013.16;5114255;28;19937;-77
2023/09/22 10:34:51;;;;;;;;;;;;;;;20.19;100.00;97012.94;5112059;28;19984;-78
2023/09/22 10:37:17;;;;;;;;;;;;;;;20.24;100.00;97012.69;5122291;28;19924;-78
2023/09/22 10:39:51;;;;;;;;;;;;;;;20.15;100.00;97011.25;5122812;28;19923;-76
2023/09/22 10:42:17;;;;;;;;;;;;;;;20.06;100.00;97014.13;5121928;28;19927;-77
2023/09/22 10:44:55;;;;;;;;;;;;;;;20.07;100.00;97026.56;5117714;28;19950;-77
2023/09/22 10:47:23;;;;;;;;;;;;;;;20.07;100.00;97020.34;5115534;28;19942;-77
2023/09/22 10:49:50;;;;;;;;;;;;;;;20.04;100.00;97027.25;5128767;28;19916;-77
2023/09/22 10:52:17;;;;;;;;;;;;;;;20.15;100.00;97025.59;5129133;28;19954;-77
2023/09/22 10:54:46;;;;;;;;;;;;;;;20.22;100.00;97020.38;5130023;28;19945;-76
2023/09/22 10:57:23;;;;;;;;;;;;;;;20.19;100.00;97018.38;5123734;28;19928;-77
2023/09/22 10:59:49;;;;;;;;;;;;;;;20.16;100.00;97019.06;5119145;28;19932;-77
2023/09/22 11:02:22;;;;;;;;;;;;;;;20.10;100.00;97017.72;5121130;28;19924;-78
2023/09/22 11:04:52;;;;;;;;;;;;;;;20.07;100.00;97015.72;5121684;28;19935;-77
2023/09/22 11:07:30;;;;;;;;;;;;;;;20.05;100.00;97007.16;5122123;28;19966;-78
2023/09/22 11:09:56;;;;;;;;;;;;;;;20.16;100.00;97010.13;5115426;28;19959;-78
2023/09/22 11:12:23;;;;;;;;;;;;;;;20.14;100.00;97017.84;5102895;28;19920;-78
2023/09/22 11:14:50;;;;;;;;;;;;;;;20.21;100.00;97024.22;5116343;28;19931;-78
2023/09/22 11:17:16;;;;;;;;;;;;;;;20.32;100.00;97011.78;5121107;28;19930;-78
2023/09/22 11:19:51;;;;;;;;;;;;;;;20.39;100.00;97022.03;5120828;28;19989;-78
2023/09/22 11:22:18;;;;;;;;;;;;;;;20.40;100.00;97016.25;5120857;28;19935;-78
2023/09/22 11:24:46;;;;;;;;;;;;;;;20.23;100.00;97011.13;5115996;28;19924;-78
2023/09/22 11:27:13;;;;;;;;;;;;;;;20.28;100.00;97010.88;5119435;28;19920;-77
2023/09/22 11:29:40;;;;;;;;;;;;;;;20.29;100.00;96998.91;5121035;28;19948;-77
2023/09/22 11:32:08;;;;;;;;;;;;;;;20.22;100.00;96997.91;5120667;28;19996;-77
2023/09/22 11:34:44;;;;;;;;;;;;;;;20.13;100.00;97000.78;5122030;28;19983;-77
2023/09/22 11:37:12;;;;;;;;;;;;;;;20.10;100.00;97000.66;5119168;28;19924;-77
2023/09/22 11:39:39;;;;;;;;;;;;;;;19.99;100.00;97007.72;5115867;28;19984;-77
2023/09/22 11:42:05;;;;;;;;;;;;;;;19.98;100.00;97008.84;5119301;28;19928;-77
2023/09/22 11:44:31;;;;;;;;;;;;;;;19.93;100.00;97015.31;5103429;28;19927;-77
2023/09/22 11:46:59;;;;;;;;;;;;;;;19.94;100.00;97009.56;5121456;28;19924;-77
2023/09/22 11:49:33;;;;;;;;;;;;;;;19.94;100.00;97020.38;5120898;28;19963;-77
2023/09/22 11:52:00;;;;;;;;;;;;;;;20.03;100.00;97022.16;5095233;28;19924;-77
2023/09/22 11:54:30;;;;;;;;;;;;;;;20.04;100.00;97029.16;5115017;28;19924;-77
2023/09/22 11:56:58;;;;;;;;;;;;;;;20.13;100.00;97027.09;5110895;28;19912;-77
2023/09/22 11:59:27;;;;;;;;;;;;;;;20.15;100.00;97014.75;5120931;28;19953;-77
2023/09/22 12:01:55;;;;;;;;;;;;;;;20.08;100.00;97014.59;5108097;28;19920;-77
2023/09/22 12:04:22;;;;;;;;;;;;;;;19.96;100.00;97022.75;5127105;28;19967;-79
2023/09/22 12:06:49;;;;;;;;;;;;;;;19.84;100.00;97025.50;5123410;28;19946;-77
2023/09/22 12:09:16;;;;;;;;;;;;;;;19.96;100.00;97024.69;5124617;28;19996;-77
2023/09/22 12:11:45;;;;;;;;;;;;;;;20.01;100.00;97024.44;5127234;28;19927;-78
2023/09/22 12:14:11;;;;;;;;;;;;;;;20.01;100.00;97027.13;5126026;28;19928;-77
2023/09/22 12:16:38;;;;;;;;;;;;;;;19.87;100.00;97025.59;5127069;28;19912;-77
2023/09/22 12:19:05;;;;;;;;;;;;;;;19.91;100.00;97036.53;5096149;28;19923;-78
2023/09/22 12:21:32;;;;;;;;;;;;;;;19.90;100.00;97032.25;5122925;28;20005;-78
2023/09/22 12:24:00;;;;;;;;;;;;;;;20.05;100.00;97025.31;5122078;28;19924;-78
2023/09/22 12:26:29;;;;;;;;;;;;;;;19.98;100.00;97022.41;5123078;28;19930;-80
2023/09/22 12:28:56;;;;;;;;;;;;;;;20.08;100.00;97036.28;5098079;28;19932;-76
2023/09/22 12:31:23;;;;;;;;;;;;;;;20.06;100.00;97027.69;5115962;28;19928;-77
2023/09/22 12:33:49;;;;;;;;;;;;;;;20.06;100.00;97030.38;5119625;28;19924;-77
2023/09/22 12:36:16;;;;;;;;;;;;;;;20.13;100.00;97027.88;5119926;28;20009;-77